Time;durP1;ratioP1;P1;durP2;ratioP2;P2;SDS_P1;SDS_P2;PMS_P1;PMS_P2;Temp;Humidity;BMP_temperature;BMP_pressure;BME280_temperature;BME280_humidity;BME280_pressure;Samples;Min_cycle;Max_cycle;Signal;HPM_P1;HPM_P2
2024/04/16 00:02:02;;;;;;;12.13;8.70;;;20.50;99.90;;;;;;5421739;26;20362;-68
2024/04/16 00:04:29;;;;;;;15.40;7.78;;;20.70;99.90;;;;;;5391688;26;20000;-67
2024/04/16 00:06:57;;;;;;;11.00;7.50;;;20.90;99.90;;;;;;5393529;26;20018;-68
2024/04/16 00:09:24;;;;;;;16.55;8.15;;;21.10;99.90;;;;;;5395648;26;20000;-68
2024/04/16 00:11:51;;;;;;;13.20;7.50;;;21.30;99.90;;;;;;5402748;26;19999;-68
2024/04/16 00:14:18;;;;;;;9.95;7.45;;;21.60;99.90;;;;;;5428997;26;20025;-67
2024/04/16 00:16:46;;;;;;;14.13;7.22;;;21.80;99.90;;;;;;5405234;26;20011;-67
2024/04/16 00:19:13;;;;;;;6.57;5.88;;;22.00;99.90;;;;;;5393262;26;21313;-66
2024/04/16 00:21:40;;;;;;;6.60;5.85;;;22.10;99.90;;;;;;5388654;26;20000;-65
2024/04/16 00:24:08;;;;;;;8.20;4.95;;;22.30;99.90;;;;;;5393011;26;19999;-67
2024/04/16 00:26:35;;;;;;;38.75;12.68;;;22.30;99.90;;;;;;5394592;26;19999;-67
2024/04/16 00:29:02;;;;;;;7.00;5.07;;;22.50;99.90;;;;;;5391023;26;19999;-67
2024/04/16 00:31:30;;;;;;;7.55;5.03;;;22.60;99.90;;;;;;5392421;26;20397;-67
2024/04/16 00:33:57;;;;;;;8.93;5.40;;;22.50;99.90;;;;;;5392566;26;19999;-67
2024/04/16 00:36:25;;;;;;;5.43;4.85;;;22.60;99.90;;;;;;5394972;26;19999;-67
2024/04/16 00:38:52;;;;;;;9.10;5.07;;;22.70;99.90;;;;;;5393380;26;20018;-67
2024/04/16 00:41:19;;;;;;;7.72;4.80;;;22.80;99.90;;;;;;5390631;26;20000;-66
2024/04/16 00:43:47;;;;;;;8.15;5.00;;;22.80;99.90;;;;;;5392064;26;20334;-69
2024/04/16 00:46:14;;;;;;;7.30;5.28;;;23.00;99.90;;;;;;5393836;26;20011;-68
2024/04/16 00:48:42;;;;;;;8.82;5.35;;;22.90;99.90;;;;;;5392837;26;19996;-68
2024/04/16 00:51:10;;;;;;;9.70;5.90;;;23.00;99.90;;;;;;5388740;26;20014;-67
2024/04/16 00:53:38;;;;;;;8.70;5.18;;;23.10;99.90;;;;;;5393743;26;19996;-67
2024/04/16 00:56:07;;;;;;;5.53;4.82;;;23.20;99.90;;;;;;5391963;26;19996;-67
2024/04/16 00:58:39;;;;;;;7.15;4.80;;;23.20;99.90;;;;;;5393834;26;20004;-67
2024/04/16 01:01:06;;;;;;;;;;;23.30;99.90;;;;;;5389846;26;20011;-66
2024/04/16 01:03:33;;;;;;;5.93;4.88;;;23.30;99.90;;;;;;5412876;26;19924;-68
2024/04/16 01:06:01;;;;;;;5.30;4.80;;;23.40;99.90;;;;;;5394574;26;20327;-68
2024/04/16 01:08:28;;;;;;;7.82;4.88;;;23.50;99.90;;;;;;5392128;26;20000;-67
2024/04/16 01:10:56;;;;;;;7.35;4.75;;;23.60;99.90;;;;;;5392617;26;20007;-67
2024/04/16 01:13:23;;;;;;;6.70;4.93;;;23.80;99.90;;;;;;5388775;26;20068;-68
2024/04/16 01:15:50;;;;;;;5.75;4.38;;;24.00;99.90;;;;;;5392741;26;20023;-68
2024/04/16 01:18:17;;;;;;;7.15;5.07;;;24.10;99.90;;;;;;5371802;26;20023;-66
2024/04/16 01:20:45;;;;;;;5.35;4.85;;;24.00;99.90;;;;;;5394986;26;20007;-66
2024/04/16 01:23:12;;;;;;;6.90;5.38;;;23.90;99.90;;;;;;5382235;26;20867;-67
2024/04/16 01:25:39;;;;;;;7.38;5.03;;;23.90;99.90;;;;;;5393971;26;20661;-68
2024/04/16 01:28:07;;;;;;;7.28;4.97;;;23.70;99.90;;;;;;5392675;26;19995;-68
2024/04/16 01:30:34;;;;;;;6.45;5.28;;;23.60;99.90;;;;;;5390223;26;20513;-68
2024/04/16 01:33:01;;;;;;;9.43;5.22;;;23.50;99.90;;;;;;5397199;26;20014;-67
2024/04/16 01:35:29;;;;;;;8.02;5.75;;;23.50;99.90;;;;;;5426505;26;20396;-67
2024/04/16 01:37:56;;;;;;;7.30;5.25;;;23.40;99.90;;;;;;5395826;26;19995;-67
2024/04/16 01:40:23;;;;;;;6.30;5.03;;;23.40;99.90;;;;;;5423442;26;20020;-67
2024/04/16 01:42:50;;;;;;;8.20;5.88;;;23.50;99.90;;;;;;5390756;26;20000;-67
2024/04/16 01:45:18;;;;;;;7.53;6.40;;;23.30;99.90;;;;;;5392248;26;19996;-67
2024/04/16 01:47:45;;;;;;;7.03;5.28;;;23.20;99.90;;;;;;5412695;26;19991;-66
2024/04/16 01:50:12;;;;;;;6.25;5.32;;;23.20;99.90;;;;;;5410248;26;20406;-67
2024/04/16 01:52:39;;;;;;;5.70;4.93;;;23.20;99.90;;;;;;5411886;26;20000;-66
2024/04/16 01:55:07;;;;;;;7.75;5.32;;;23.40;99.90;;;;;;5398298;26;19999;-67
2024/04/16 01:57:35;;;;;;;6.25;5.00;;;23.70;99.90;;;;;;5403018;26;20002;-66
2024/04/16 02:00:04;;;;;;;7.57;4.30;;;24.10;99.90;;;;;;5399848;26;20384;-67
2024/04/16 02:02:35;;;;;;;5.20;4.80;;;24.40;99.90;;;;;;5383810;26;19996;-67
2024/04/16 02:05:05;;;;;;;6.78;5.15;;;24.50;99.90;;;;;;5402912;26;19995;-67
2024/04/16 02:07:32;;;;;;;7.05;5.60;;;24.50;99.90;;;;;;5389720;26;20019;-67
2024/04/16 02:10:00;;;;;;;12.70;5.38;;;24.60;99.90;;;;;;5425447;26;20010;-67
2024/04/16 02:12:27;;;;;;;14.90;5.28;;;24.90;99.90;;;;;;5390448;26;20001;-67
2024/04/16 02:14:54;;;;;;;5.95;5.30;;;25.20;99.90;;;;;;5395923;26;20003;-67
2024/04/16 02:17:23;;;;;;;7.43;5.10;;;25.50;99.90;;;;;;5395209;26;20745;-67
2024/04/16 02:19:51;;;;;;;10.95;7.30;;;25.60;99.90;;;;;;5394950;26;19999;-67
2024/04/16 02:22:18;;;;;;;9.30;6.22;;;25.70;99.90;;;;;;5385731;26;20047;-67
2024/04/16 02:24:45;;;;;;;7.07;5.85;;;25.90;99.90;;;;;;5389787;26;20000;-66
2024/04/16 02:27:13;;;;;;;7.78;5.40;;;26.10;99.90;;;;;;5403588;26;20071;-66
2024/04/16 02:29:40;;;;;;;5.85;5.25;;;26.20;99.90;;;;;;5421644;26;20027;-66
2024/04/16 02:32:07;;;;;;;5.93;5.25;;;26.40;99.90;;;;;;5389676;26;20080;-68
2024/04/16 02:34:34;;;;;;;6.00;5.40;;;26.50;99.90;;;;;;5391011;26;20022;-66
2024/04/16 02:37:02;;;;;;;7.80;5.15;;;26.60;99.90;;;;;;5396732;26;20003;-67
2024/04/16 02:39:30;;;;;;;8.13;5.22;;;26.90;99.90;;;;;;5396597;26;20010;-67
2024/04/16 02:41:58;;;;;;;7.60;5.88;;;26.90;99.90;;;;;;5393688;26;20004;-67
2024/04/16 02:44:25;;;;;;;8.32;5.93;;;26.80;99.90;;;;;;5405415;26;20327;-68
2024/04/16 02:46:53;;;;;;;9.98;5.82;;;26.40;99.90;;;;;;5408995;26;20693;-67
2024/04/16 02:49:20;;;;;;;7.55;5.38;;;26.20;99.90;;;;;;5396478;26;20829;-67
2024/04/16 02:51:47;;;;;;;8.68;6.07;;;26.10;99.90;;;;;;5393897;26;20003;-67
2024/04/16 02:54:14;;;;;;;9.30;5.20;;;25.90;99.90;;;;;;5396574;26;20010;-66
2024/04/16 02:56:42;;;;;;;7.07;5.15;;;26.30;99.90;;;;;;5394438;26;20003;-67
2024/04/16 02:59:09;;;;;;;7.75;4.88;;;27.20;99.90;;;;;;5380274;26;20016;-66
2024/04/16 03:01:36;;;;;;;7.68;5.13;;;27.50;99.90;;;;;;5395716;26;20012;-66
2024/04/16 03:04:04;;;;;;;6.65;5.78;;;27.10;99.90;;;;;;5396149;26;19995;-68
2024/04/16 03:06:31;;;;;;;8.90;5.88;;;27.60;99.90;;;;;;5395917;26;20011;-67
2024/04/16 03:08:59;;;;;;;6.40;5.78;;;28.80;99.70;;;;;;5384804;26;20024;-67
2024/04/16 03:11:26;;;;;;;6.57;5.40;;;29.60;97.40;;;;;;5402580;26;20064;-68
2024/04/16 03:13:53;;;;;;;6.22;5.55;;;30.00;97.00;;;;;;5431103;26;19995;-66
2024/04/16 03:16:21;;;;;;;8.02;4.47;;;31.10;95.40;;;;;;5391000;26;20019;-67
2024/04/16 03:18:48;;;;;;;9.05;4.75;;;31.20;93.90;;;;;;5360016;26;20091;-66
2024/04/16 03:21:15;;;;;;;5.75;5.10;;;30.30;94.70;;;;;;5357533;26;20015;-67
2024/04/16 03:23:42;;;;;;;5.55;5.05;;;29.20;96.10;;;;;;5389737;26;20301;-68
2024/04/16 03:26:10;;;;;;;8.00;4.50;;;28.40;97.60;;;;;;5395538;26;20000;-67
2024/04/16 03:28:37;;;;;;;9.65;5.20;;;28.40;98.70;;;;;;5369486;26;20004;-68
2024/04/16 03:31:04;;;;;;;8.32;4.95;;;29.20;97.90;;;;;;5359185;26;20000;-67
2024/04/16 03:33:32;;;;;;;5.50;4.20;;;30.80;95.90;;;;;;5359198;26;19992;-66
2024/04/16 03:35:59;;;;;;;10.93;5.38;;;32.70;93.40;;;;;;5379248;26;19996;-67
2024/04/16 03:38:27;;;;;;;6.63;4.75;;;33.70;90.90;;;;;;5372820;26;19996;-67
2024/04/16 03:40:58;;;;;;;6.60;4.00;;;34.30;90.10;;;;;;5360381;26;20012;-68
2024/04/16 03:43:26;;;;;;;5.80;4.35;;;34.80;87.50;;;;;;5391043;26;20091;-67
2024/04/16 03:45:54;;;;;;;5.07;4.28;;;35.70;85.00;;;;;;5361413;26;20000;-70
2024/04/16 03:48:23;;;;;;;8.07;4.03;;;36.50;81.90;;;;;;5382767;26;20003;-67
2024/04/16 03:50:51;;;;;;;5.03;4.00;;;36.70;79.60;;;;;;5395619;26;20847;-67
2024/04/16 03:53:18;;;;;;;4.97;3.63;;;37.40;78.00;;;;;;5397317;26;20003;-68
2024/04/16 03:55:46;;;;;;;5.68;3.92;;;38.40;76.90;;;;;;5396375;26;20433;-68
2024/04/16 03:58:13;;;;;;;5.03;3.95;;;38.00;75.10;;;;;;5378768;26;20004;-67
2024/04/16 04:03:26;;;;;;;5.88;4.80;;;37.40;74.40;;;;;;5375327;26;20486;-67
2024/04/16 04:05:54;;;;;;;4.65;3.78;;;36.10;76.70;;;;;;5395103;26;19995;-66
2024/04/16 04:08:21;;;;;;;8.27;4.43;;;35.50;77.60;;;;;;5376526;26;20000;-68
2024/04/16 04:10:49;;;;;;;6.63;3.75;;;35.60;77.40;;;;;;5360609;26;20004;-67
2024/04/16 04:13:16;;;;;;;4.75;4.13;;;36.20;76.30;;;;;;5371521;26;20011;-68
2024/04/16 04:15:43;;;;;;;5.35;4.63;;;36.40;75.60;;;;;;5370769;26;20008;-66
2024/04/16 04:18:11;;;;;;;6.80;3.75;;;36.30;74.90;;;;;;5395138;26;19999;-67
2024/04/16 04:20:38;;;;;;;4.35;3.75;;;36.50;75.00;;;;;;5392701;26;19999;-67
2024/04/16 04:23:06;;;;;;;5.15;4.32;;;36.60;74.10;;;;;;5360892;26;20012;-68
2024/04/16 04:25:33;;;;;;;6.53;4.38;;;35.60;75.50;;;;;;5364656;26;20004;-68
2024/04/16 04:28:01;;;;;;;8.95;4.88;;;34.00;78.30;;;;;;5396335;26;20008;-67
2024/04/16 04:30:28;;;;;;;6.45;4.97;;;32.70;80.70;;;;;;5394864;26;20529;-66
2024/04/16 04:32:55;;;;;;;7.20;4.75;;;31.30;84.60;;;;;;5376577;26;19996;-67
2024/04/16 04:35:23;;;;;;;7.45;4.65;;;30.60;86.30;;;;;;5388004;26;20463;-67
2024/04/16 04:37:50;;;;;;;6.63;4.57;;;30.20;88.20;;;;;;5394833;26;20009;-67
2024/04/16 04:40:17;;;;;;;4.90;4.15;;;30.90;87.90;;;;;;5394676;26;20069;-66
2024/04/16 04:42:45;;;;;;;7.93;3.92;;;32.50;84.50;;;;;;5393701;26;19995;-65
2024/04/16 04:45:13;;;;;;;5.18;3.45;;;33.90;80.50;;;;;;5392883;26;20333;-69
2024/04/16 04:47:40;;;;;;;5.43;3.58;;;34.60;80.10;;;;;;5394660;26;20521;-67
2024/04/16 04:50:08;;;;;;;4.75;3.95;;;35.10;78.70;;;;;;5393258;26;20015;-70
2024/04/16 04:52:35;;;;;;;5.82;3.80;;;34.70;78.90;;;;;;5391583;26;20027;-71
2024/04/16 04:55:03;;;;;;;5.85;3.80;;;34.50;78.80;;;;;;5388850;26;20015;-70
2024/04/16 04:57:31;;;;;;;8.40;3.70;;;34.80;78.90;;;;;;5395082;26;20099;-71
2024/04/16 04:59:58;;;;;;;6.18;4.00;;;34.60;77.30;;;;;;5388965;26;20025;-71
2024/04/16 05:02:26;;;;;;;5.72;3.85;;;33.80;78.70;;;;;;5388658;26;20073;-70
2024/04/16 05:04:53;;;;;;;5.13;4.18;;;32.40;81.40;;;;;;5384690;26;20104;-70
2024/04/16 05:07:20;;;;;;;6.22;4.22;;;30.90;85.70;;;;;;5393370;26;20004;-70
2024/04/16 05:09:49;;;;;;;6.03;3.90;;;29.90;87.00;;;;;;5387354;26;20007;-70
2024/04/16 05:12:16;;;;;;;5.88;4.00;;;29.50;89.90;;;;;;5392799;26;20010;-72
2024/04/16 05:14:43;;;;;;;5.13;3.78;;;29.70;88.60;;;;;;5394075;26;20008;-72
2024/04/16 05:17:12;;;;;;;4.35;3.95;;;29.80;90.00;;;;;;5396051;26;20003;-70
2024/04/16 05:19:39;;;;;;;5.68;3.30;;;30.10;88.80;;;;;;5409946;26;19995;-71
2024/04/16 05:22:07;;;;;;;6.28;3.22;;;31.60;85.90;;;;;;5396255;26;20000;-70
2024/04/16 05:24:34;;;;;;;5.07;3.63;;;33.20;83.10;;;;;;5395961;26;20026;-71
2024/04/16 05:27:01;;;;;;;7.55;3.30;;;34.60;79.50;;;;;;5397447;26;20000;-71
2024/04/16 05:29:32;;;;;;;6.13;3.30;;;35.10;77.70;;;;;;5397609;26;20057;-71
2024/04/16 05:31:59;;;;;;;5.90;2.67;;;35.80;76.40;;;;;;5400778;26;19999;-72
2024/04/16 05:34:26;;;;;;;4.20;3.25;;;35.90;76.60;;;;;;5392894;26;19995;-70
2024/04/16 05:36:53;;;;;;;7.57;3.67;;;36.60;75.00;;;;;;5397079;26;20376;-72
2024/04/16 05:39:21;;;;;;;6.63;3.42;;;36.90;74.30;;;;;;5382611;26;20992;-74
2024/04/16 05:41:48;;;;;;;5.82;3.10;;;36.90;74.40;;;;;;5397182;26;20023;-71
2024/04/16 05:44:15;;;;;;;8.85;3.40;;;36.70;73.50;;;;;;5396240;26;19995;-72
2024/04/16 05:46:42;;;;;;;5.80;3.08;;;36.70;73.30;;;;;;5404688;26;19999;-72
2024/04/16 05:49:10;;;;;;;6.93;3.33;;;36.90;74.10;;;;;;5398456;26;20004;-72
2024/04/16 05:51:37;;;;;;;5.38;3.47;;;37.50;72.80;;;;;;5398385;26;20030;-73
2024/04/16 05:54:06;;;;;;;5.50;3.10;;;37.20;73.30;;;;;;5397353;26;20011;-71
2024/04/16 05:56:36;;;;;;;4.00;3.22;;;36.60;73.30;;;;;;5384906;26;20050;-71
2024/04/16 05:59:04;;;;;;;4.17;3.77;;;35.30;74.90;;;;;;5400522;26;20041;-71
2024/04/16 06:01:32;;;;;;;4.10;3.20;;;34.40;76.70;;;;;;5386277;26;20479;-72
2024/04/16 06:04:01;;;;;;;4.03;3.00;;;34.60;77.90;;;;;;5384869;26;20003;-72
2024/04/16 06:06:28;;;;;;;5.78;3.22;;;35.30;76.00;;;;;;5385890;26;20000;-71
2024/04/16 06:08:55;;;;;;;4.18;3.05;;;35.70;75.10;;;;;;5419370;26;20003;-73
2024/04/16 06:11:22;;;;;;;7.40;3.80;;;35.80;74.70;;;;;;5393406;26;20004;-71
2024/04/16 06:13:50;;;;;;;6.05;3.42;;;35.50;74.30;;;;;;5410555;26;20020;-73
2024/04/16 06:16:17;;;;;;;4.93;3.55;;;35.20;75.50;;;;;;5456935;26;19998;-71
2024/04/16 06:18:44;;;;;;;6.13;4.00;;;35.30;75.30;;;;;;5380357;26;20000;-71
2024/04/16 06:21:11;;;;;;;6.07;3.70;;;34.80;76.10;;;;;;5392770;26;20076;-71
2024/04/16 06:23:39;;;;;;;8.00;4.57;;;33.80;77.90;;;;;;5397167;26;19999;-71
2024/04/16 06:26:10;;;;;;;6.45;4.28;;;33.10;79.90;;;;;;5401112;26;20019;-71
2024/04/16 06:28:37;;;;;;;6.28;4.50;;;31.40;82.20;;;;;;5432133;26;20067;-72
2024/04/16 06:31:05;;;;;;;5.07;4.13;;;30.10;85.30;;;;;;5396454;26;20016;-72
2024/04/16 06:33:36;;;;;;;6.53;4.43;;;28.50;89.10;;;;;;5383855;26;20015;-72
2024/04/16 06:36:05;;;;;;;6.00;4.55;;;27.50;91.50;;;;;;5393232;26;20040;-71
2024/04/16 06:38:33;;;;;;;5.88;5.20;;;26.90;93.50;;;;;;5377725;26;20080;-72
2024/04/16 06:41:00;;;;;;;5.57;5.00;;;26.80;94.60;;;;;;5376631;26;20005;-73
2024/04/16 06:43:28;;;;;;;6.60;5.03;;;27.10;94.50;;;;;;5379095;26;20030;-71
2024/04/16 06:45:56;;;;;;;4.88;4.35;;;27.90;94.20;;;;;;5382562;26;20452;-72
2024/04/16 06:48:23;;;;;;;6.40;4.60;;;28.50;92.80;;;;;;5381945;26;19999;-73
2024/04/16 06:50:52;;;;;;;5.47;4.97;;;28.20;92.30;;;;;;5375721;26;19996;-71
2024/04/16 06:53:19;;;;;;;8.20;5.22;;;27.60;93.20;;;;;;5381684;26;20017;-74
2024/04/16 06:55:46;;;;;;;9.25;5.07;;;27.10;94.10;;;;;;5377803;26;20014;-73
2024/04/16 06:58:14;;;;;;;7.57;5.45;;;26.40;95.40;;;;;;5384115;26;20010;-72
2024/04/16 07:00:41;;;;;;;11.52;6.53;;;25.90;96.70;;;;;;5378366;26;20008;-72
2024/04/16 07:03:08;;;;;;;7.88;6.47;;;25.40;97.70;;;;;;5386651;26;20014;-72
2024/04/16 07:05:37;;;;;;;8.00;6.35;;;25.00;99.60;;;;;;5374599;26;20010;-72
2024/04/16 07:08:05;;;;;;;9.20;7.55;;;24.60;99.90;;;;;;5380134;26;20000;-72
2024/04/16 07:10:32;;;;;;;8.00;6.93;;;24.30;99.90;;;;;;5385044;26;20331;-72
2024/04/16 07:12:59;;;;;;;10.57;7.53;;;24.00;99.90;;;;;;5378893;26;20326;-72
2024/04/16 07:15:27;;;;;;;7.53;6.85;;;23.80;99.90;;;;;;5386708;26;20032;-73
2024/04/16 07:17:55;;;;;;;9.20;6.97;;;23.60;99.90;;;;;;5383986;26;20019;-75
2024/04/16 07:20:23;;;;;;;8.60;7.72;;;23.40;99.90;;;;;;5386388;26;20081;-72
2024/04/16 07:22:50;;;;;;;10.10;7.68;;;23.20;99.90;;;;;;5397945;26;20009;-73
2024/04/16 07:25:18;;;;;;;8.65;7.50;;;23.10;99.90;;;;;;5388365;26;20017;-72
2024/04/16 07:27:46;;;;;;;8.85;7.95;;;22.90;99.90;;;;;;5409603;26;20015;-72
2024/04/16 07:30:14;;;;;;;10.15;8.70;;;22.70;99.90;;;;;;5375575;26;20011;-71
2024/04/16 07:32:41;;;;;;;10.18;9.15;;;22.60;99.90;;;;;;5382020;26;20129;-72
2024/04/16 07:35:09;;;;;;;9.32;8.45;;;22.50;99.90;;;;;;5381960;26;20464;-75
2024/04/16 07:37:37;;;;;;;12.27;8.88;;;22.50;99.90;;;;;;5394324;26;20014;-75
2024/04/16 07:40:05;;;;;;;11.00;8.80;;;22.50;99.90;;;;;;5397117;26;20000;-74
2024/04/16 07:42:32;;;;;;;21.55;9.05;;;22.30;99.90;;;;;;5394193;26;20001;-71
2024/04/16 07:44:59;;;;;;;9.35;8.13;;;22.30;99.90;;;;;;5387317;26;20012;-72
2024/04/16 07:47:27;;;;;;;8.80;7.90;;;22.20;99.90;;;;;;5392113;26;20340;-71
2024/04/16 07:49:54;;;;;;;11.70;8.40;;;22.10;99.90;;;;;;5390632;26;20014;-73
2024/04/16 07:52:21;;;;;;;13.50;9.63;;;22.00;99.90;;;;;;5401654;26;20011;-70
2024/04/16 07:54:48;;;;;;;11.23;9.00;;;21.90;99.90;;;;;;5395491;26;20003;-71
2024/04/16 07:57:16;;;;;;;10.15;9.13;;;21.90;99.90;;;;;;5390283;26;20044;-71
2024/04/16 07:59:43;;;;;;;10.25;9.15;;;21.90;99.90;;;;;;5374635;26;20003;-74
2024/04/16 08:02:10;;;;;;;12.25;9.38;;;21.80;99.90;;;;;;5395120;26;19995;-70
2024/04/16 08:04:38;;;;;;;9.20;8.30;;;21.70;99.90;;;;;;5397301;26;20019;-73
2024/04/16 08:07:05;;;;;;;14.27;9.98;;;21.60;99.90;;;;;;5395774;26;20022;-74
2024/04/16 08:09:33;;;;;;;12.82;9.55;;;21.60;99.90;;;;;;5396387;26;19999;-72
2024/04/16 08:12:00;;;;;;;10.05;8.68;;;21.60;99.90;;;;;;5394728;26;20464;-73
2024/04/16 08:14:28;;;;;;;13.75;11.10;;;21.60;99.90;;;;;;5396776;26;20852;-71
2024/04/16 08:16:55;;;;;;;12.18;10.23;;;21.60;99.90;;;;;;5395754;26;20006;-73
2024/04/16 08:19:22;;;;;;;12.13;10.13;;;21.60;99.90;;;;;;5387484;26;20074;-71
2024/04/16 08:21:51;;;;;;;12.30;11.00;;;21.50;99.90;;;;;;5360002;26;20165;-70
2024/04/16 08:24:19;;;;;;;16.00;11.40;;;21.50;99.90;;;;;;5381671;26;19999;-72
2024/04/16 08:26:46;;;;;;;14.10;12.43;;;21.40;99.90;;;;;;5395849;26;20018;-72
2024/04/16 08:29:13;;;;;;;14.32;10.88;;;21.30;99.90;;;;;;5394259;26;20014;-74
2024/04/16 08:31:40;;;;;;;11.75;10.55;;;21.30;99.90;;;;;;5396601;26;20051;-72
2024/04/16 08:34:08;;;;;;;13.40;11.93;;;21.20;99.90;;;;;;5391707;26;20031;-72
2024/04/16 08:36:35;;;;;;;13.18;11.77;;;21.20;99.90;;;;;;5392600;26;20076;-72
2024/04/16 08:39:03;;;;;;;13.13;11.38;;;21.10;99.90;;;;;;5394482;26;20497;-72
2024/04/16 08:41:30;;;;;;;13.00;11.05;;;21.10;99.90;;;;;;5396564;26;20104;-72
2024/04/16 08:44:01;;;;;;;12.15;9.82;;;21.10;99.90;;;;;;5395548;26;20049;-73
2024/04/16 08:46:30;;;;;;;12.38;10.15;;;21.00;99.90;;;;;;5397150;26;20014;-70
2024/04/16 08:48:58;;;;;;;13.95;10.48;;;21.00;99.90;;;;;;5397893;26;19996;-70
2024/04/16 08:51:29;;;;;;;15.80;11.95;;;21.00;99.90;;;;;;5398866;26;20000;-70
2024/04/16 08:53:58;;;;;;;11.32;10.10;;;21.00;99.90;;;;;;5427497;26;20011;-71
2024/04/16 08:56:26;;;;;;;11.73;10.05;;;20.90;99.90;;;;;;5396392;26;19999;-69
2024/04/16 08:58:53;;;;;;;15.93;10.77;;;20.90;99.90;;;;;;5398297;26;20011;-71
2024/04/16 09:01:21;;;;;;;11.45;10.25;;;20.90;99.90;;;;;;5370103;26;20000;-71
2024/04/16 09:03:51;;;;;;;11.43;9.80;;;20.90;99.90;;;;;;5398544;26;20000;-70
2024/04/16 09:06:18;;;;;;;12.60;10.80;;;20.90;99.90;;;;;;5396727;26;20036;-69
2024/04/16 09:08:47;;;;;;;11.77;10.57;;;20.90;99.90;;;;;;5395529;26;20018;-69
2024/04/16 09:11:14;;;;;;;13.27;10.27;;;20.80;99.90;;;;;;5397352;26;19999;-69
2024/04/16 09:13:43;;;;;;;13.80;11.27;;;20.80;99.90;;;;;;5398924;26;19999;-70
2024/04/16 09:16:13;;;;;;;12.40;11.20;;;20.80;99.90;;;;;;5397101;26;20076;-72
2024/04/16 09:18:40;;;;;;;13.30;10.85;;;20.70;99.90;;;;;;5374185;26;20008;-71
2024/04/16 09:21:08;;;;;;;14.63;13.07;;;20.70;99.90;;;;;;5360738;26;20011;-72
2024/04/16 09:23:35;;;;;;;14.55;12.40;;;20.70;99.90;;;;;;5385045;26;20011;-70
2024/04/16 09:26:02;;;;;;;13.48;12.18;;;20.60;99.90;;;;;;5398621;26;20011;-70
2024/04/16 09:28:30;;;;;;;13.45;12.02;;;20.60;99.90;;;;;;5389663;26;20633;-70
2024/04/16 09:30:57;;;;;;;14.68;13.27;;;20.60;99.90;;;;;;5396047;26;20003;-71
2024/04/16 09:33:30;;;;;;;12.90;11.55;;;20.60;99.90;;;;;;5398054;26;20077;-70
2024/04/16 09:35:57;;;;;;;15.82;13.32;;;20.60;99.90;;;;;;5397828;26;20003;-71
2024/04/16 09:38:25;;;;;;;16.48;12.75;;;20.60;99.90;;;;;;5377265;26;20015;-71
2024/04/16 09:40:53;;;;;;;14.88;12.45;;;20.60;99.90;;;;;;5391989;26;20014;-72
2024/04/16 09:43:21;;;;;;;14.80;11.35;;;20.60;99.90;;;;;;5376508;26;20015;-71
2024/04/16 09:45:49;;;;;;;13.48;12.13;;;20.60;99.90;;;;;;5392434;26;20004;-72
2024/04/16 09:48:20;;;;;;;18.92;12.73;;;20.50;99.90;;;;;;5396140;26;20401;-72
2024/04/16 09:50:49;;;;;;;14.90;13.23;;;20.40;99.90;;;;;;5398077;26;19996;-70
2024/04/16 09:53:19;;;;;;;13.45;12.15;;;20.50;99.90;;;;;;5396293;26;20007;-73
2024/04/16 09:55:47;;;;;;;13.07;11.73;;;20.40;99.90;;;;;;5398814;26;20014;-71
2024/04/16 09:58:17;;;;;;;16.17;13.57;;;20.50;99.90;;;;;;5396069;26;20031;-72
2024/04/16 10:00:46;;;;;;;13.57;12.30;;;20.50;99.90;;;;;;5399024;26;19995;-71
2024/04/16 10:03:13;;;;;;;16.40;13.57;;;20.50;99.90;;;;;;5397513;26;20007;-71
2024/04/16 10:05:41;;;;;;;13.57;12.18;;;20.50;99.90;;;;;;5398224;26;20071;-72
2024/04/16 10:08:08;;;;;;;14.15;12.02;;;20.50;99.90;;;;;;5398221;26;20000;-71
2024/04/16 10:10:36;;;;;;;14.13;12.05;;;20.50;99.90;;;;;;5396614;26;20007;-71
2024/04/16 10:13:05;;;;;;;13.88;11.43;;;20.50;99.90;;;;;;5380558;26;20036;-71
2024/04/16 10:15:34;;;;;;;12.32;11.13;;;20.50;99.90;;;;;;5377313;26;20004;-71
2024/04/16 10:18:02;;;;;;;11.90;10.50;;;20.40;99.90;;;;;;5398590;26;19999;-72
2024/04/16 10:20:30;;;;;;;12.48;11.18;;;20.40;99.90;;;;;;5397603;26;20003;-69
2024/04/16 10:23:01;;;;;;;13.32;12.00;;;20.40;99.90;;;;;;5397743;26;20003;-70
2024/04/16 10:25:33;;;;;;;15.98;11.05;;;20.40;99.90;;;;;;5397909;26;20015;-69
2024/04/16 10:28:03;;;;;;;14.52;12.90;;;20.30;99.90;;;;;;5369127;26;19999;-70
2024/04/16 10:30:36;;;;;;;13.27;12.02;;;20.30;99.90;;;;;;5396389;26;20348;-70
2024/04/16 10:33:04;;;;;;;13.65;12.05;;;20.30;99.90;;;;;;5382409;26;20004;-68
2024/04/16 10:35:33;;;;;;;14.52;13.02;;;20.30;99.90;;;;;;5377015;26;19999;-68
2024/04/16 10:38:03;;;;;;;14.68;12.60;;;20.30;99.90;;;;;;5398439;26;20000;-71
2024/04/16 10:40:31;;;;;;;16.10;12.70;;;20.30;99.90;;;;;;5395269;26;20370;-69
2024/04/16 10:43:03;;;;;;;14.02;12.60;;;20.20;99.90;;;;;;5382458;26;20341;-68
2024/04/16 10:45:31;;;;;;;14.63;13.05;;;20.30;99.90;;;;;;5376382;26;20079;-69
2024/04/16 10:48:00;;;;;;;16.58;13.75;;;20.20;99.90;;;;;;5396520;26;20011;-70
2024/04/16 10:50:27;;;;;;;14.80;13.30;;;20.20;99.90;;;;;;5396595;26;20340;-70
2024/04/16 10:52:55;;;;;;;15.68;12.95;;;20.10;99.90;;;;;;5391317;26;19999;-71
2024/04/16 10:55:24;;;;;;;15.48;13.82;;;20.10;99.90;;;;;;5396154;26;20004;-70
2024/04/16 10:57:52;;;;;;;15.50;13.07;;;20.10;99.90;;;;;;5375715;26;20074;-68
2024/04/16 11:00:19;;;;;;;15.18;13.60;;;20.10;99.90;;;;;;5362461;26;20050;-67
2024/04/16 11:02:47;;;;;;;15.10;13.27;;;20.10;99.90;;;;;;5363007;26;20023;-68
2024/04/16 11:05:21;;;;;;;16.67;13.50;;;20.20;99.90;;;;;;5380130;26;20031;-69
2024/04/16 11:07:49;;;;;;;15.35;13.50;;;20.20;99.90;;;;;;5396471;26;20011;-68
2024/04/16 11:10:17;;;;;;;14.70;13.25;;;20.20;99.90;;;;;;5395240;26;20007;-69
2024/04/16 11:12:44;;;;;;;14.93;13.32;;;20.10;99.90;;;;;;5394591;26;19999;-68
2024/04/16 11:15:12;;;;;;;15.50;13.98;;;20.10;99.90;;;;;;5397901;26;20159;-70
2024/04/16 11:17:39;;;;;;;15.02;12.85;;;20.10;99.90;;;;;;5397515;26;20035;-70
2024/04/16 11:20:08;;;;;;;15.27;13.27;;;20.10;99.90;;;;;;5398212;26;20065;-67
2024/04/16 11:22:36;;;;;;;15.65;14.00;;;20.10;99.90;;;;;;5395490;26;20000;-69
2024/04/16 11:25:12;;;;;;;16.45;14.63;;;20.10;99.90;;;;;;5396121;26;20011;-69
2024/04/16 11:27:39;;;;;;;19.40;14.65;;;20.00;99.90;;;;;;5396462;26;20003;-70
2024/04/16 11:30:07;;;;;;;14.57;13.18;;;20.10;99.90;;;;;;5397368;26;19995;-69
2024/04/16 11:32:35;;;;;;;15.00;13.38;;;20.00;99.90;;;;;;5395774;26;19999;-69
2024/04/16 11:35:02;;;;;;;15.07;13.48;;;19.90;99.90;;;;;;5395857;26;20009;-72
2024/04/16 11:37:30;;;;;;;14.98;13.48;;;20.00;99.90;;;;;;5381033;26;20403;-71
2024/04/16 11:39:57;;;;;;;15.57;13.68;;;19.90;99.90;;;;;;5361346;26;20444;-71
2024/04/16 11:42:26;;;;;;;15.45;13.82;;;19.90;99.90;;;;;;5364597;26;20004;-69
2024/04/16 11:44:53;;;;;;;14.25;12.80;;;19.90;99.90;;;;;;5396335;26;20011;-70
2024/04/16 11:47:21;;;;;;;14.60;13.20;;;19.90;99.90;;;;;;5396593;26;19996;-71
2024/04/16 11:49:48;;;;;;;20.50;14.82;;;19.80;99.90;;;;;;5395979;26;20035;-70
2024/04/16 11:52:15;;;;;;;21.05;15.15;;;19.80;99.90;;;;;;5394633;26;20090;-71
2024/04/16 11:54:44;;;;;;;14.55;12.98;;;19.80;99.90;;;;;;5363723;26;20027;-68
2024/04/16 11:57:11;;;;;;;15.15;13.75;;;19.70;99.90;;;;;;5396229;26;20011;-67
2024/04/16 11:59:38;;;;;;;14.60;13.20;;;19.70;99.90;;;;;;5395597;26;20072;-69
2024/04/16 12:02:07;;;;;;;16.80;15.05;;;19.60;99.90;;;;;;5396262;26;19996;-68
2024/04/16 12:04:34;;;;;;;14.98;13.48;;;19.60;99.90;;;;;;5394410;26;19999;-69
2024/04/16 12:07:01;;;;;;;15.30;13.63;;;19.50;99.90;;;;;;5396942;26;20031;-68
2024/04/16 12:09:29;;;;;;;17.73;14.73;;;19.40;99.90;;;;;;5396632;26;19996;-69
2024/04/16 12:11:56;;;;;;;18.17;14.43;;;19.50;99.90;;;;;;5394286;26;20762;-68
2024/04/16 12:14:24;;;;;;;18.08;15.27;;;19.40;99.90;;;;;;5395818;26;19995;-70
2024/04/16 12:16:51;;;;;;;17.60;15.82;;;19.40;99.90;;;;;;5395493;26;20072;-70
2024/04/16 12:19:19;;;;;;;17.48;15.57;;;19.40;99.90;;;;;;5394756;26;20019;-70
2024/04/16 12:21:46;;;;;;;17.90;15.82;;;19.30;99.90;;;;;;5384350;26;20012;-71
2024/04/16 12:24:13;;;;;;;20.63;16.45;;;19.30;99.90;;;;;;5361688;26;20107;-70
2024/04/16 12:26:41;;;;;;;18.17;16.23;;;19.30;99.90;;;;;;5390340;26;20022;-71
2024/04/16 12:29:08;;;;;;;17.15;15.40;;;19.30;99.90;;;;;;5396192;26;20053;-72
2024/04/16 12:31:36;;;;;;;17.77;15.60;;;19.20;99.90;;;;;;5386038;26;20085;-69
2024/04/16 12:34:03;;;;;;;17.15;14.95;;;19.20;99.90;;;;;;5359948;26;20496;-69
2024/04/16 12:36:31;;;;;;;18.45;15.60;;;19.20;99.90;;;;;;5389782;26;20043;-70
2024/04/16 12:38:58;;;;;;;18.13;16.42;;;19.20;99.90;;;;;;5395009;26;20340;-69
2024/04/16 12:41:25;;;;;;;18.98;16.40;;;19.20;99.90;;;;;;5395112;26;20035;-70
2024/04/16 12:43:53;;;;;;;19.08;17.08;;;19.10;99.90;;;;;;5395932;26;19996;-71